Time;durP1;ratioP1;P1;durP2;ratioP2;P2;SDS_P1;SDS_P2;PMS_P1;PMS_P2;Temp;Humidity;BMP_temperature;BMP_pressure;BME280_temperature;BME280_humidity;BME280_pressure;Samples;Min_cycle;Max_cycle;Signal;HPM_P1;HPM_P2
2022/09/13 20:40:34;;;;;;;1.75;1.65;;;;;;;20.20;44.51;94383.44;2394448;54;50716;-78
2022/09/13 20:43:03;;;;;;;1.50;1.40;;;;;;;20.30;44.67;94412.09;2618488;54;20161;-79
2022/09/13 20:45:32;;;;;;;2.15;1.35;;;;;;;19.83;43.41;94342.75;2619067;47;20153;-78
2022/09/13 20:48:00;;;;;;;1.13;1.13;;;;;;;20.17;45.64;94376.25;2618970;54;20152;-79
2022/09/13 20:50:29;;;;;;;1.13;1.13;;;;;;;19.87;45.03;94389.44;2617828;54;20156;-83
2022/09/13 20:53:00;;;;;;;1.23;1.13;;;;;;;20.08;44.61;94397.91;2618064;52;20192;-80
2022/09/13 20:55:29;;;;;;;1.30;1.30;;;;;;;19.57;47.03;94389.63;2618124;47;20180;-80
2022/09/13 20:58:01;;;;;;;1.02;1.02;;;;;;;19.32;45.63;94403.41;2618908;47;20672;-83
2022/09/13 21:00:32;;;;;;;1.60;1.50;;;;;;;18.80;47.49;94321.13;2617728;54;20148;-80
2022/09/13 21:03:04;;;;;;;1.55;1.00;;;;;;;18.88;47.43;94301.00;2618486;54;20157;-79
2022/09/13 21:05:32;;;;;;;1.80;1.70;;;;;;;18.84;46.21;94395.00;2618558;54;20149;-81
2022/09/13 21:10:42;;;;;;;2.38;1.30;;;;;;;18.61;46.50;94392.19;2618593;47;20157;-79
2022/09/13 21:13:13;;;;;;;1.63;1.53;;;;;;;16.92;51.02;94402.75;2618536;47;20788;-82
2022/09/13 21:15:42;;;;;;;1.20;1.20;;;;;;;16.88;52.50;94422.00;2619117;39;20592;-83
2022/09/13 21:18:11;;;;;;;1.60;1.50;;;;;;;16.36;53.18;94374.53;2618739;39;20562;-79
2022/09/13 21:20:39;;;;;;;2.00;1.80;;;;;;;16.46;53.55;94359.59;2617875;54;20184;-79
2022/09/13 21:23:08;;;;;;;1.67;1.57;;;;;;;16.51;51.72;94395.34;2619238;47;20181;-78
2022/09/13 21:25:37;;;;;;;1.53;1.50;;;;;;;15.43;56.17;94425.91;2620443;47;20157;-79
2022/09/13 21:28:06;;;;;;;1.73;1.67;;;;;;;15.39;56.21;94417.28;2619785;54;20152;-78
2022/09/13 21:30:37;;;;;;;1.50;1.30;;;;;;;15.40;56.57;94409.44;2618805;54;20153;-78
2022/09/13 21:33:06;;;;;;;1.80;1.70;;;;;;;14.57;58.26;94381.41;2619080;31;20680;-78
2022/09/13 21:35:39;;;;;;;1.97;1.87;;;;;;;14.91;59.04;94426.72;2619410;47;20149;-76
2022/09/13 21:38:09;;;;;;;1.40;1.40;;;;;;;14.98;58.94;94352.66;2618719;47;20152;-81
2022/09/13 21:40:50;;;;;;;1.80;1.70;;;;;;;15.57;56.37;94394.69;2618845;54;20164;-78
2022/09/13 21:43:19;;;;;;;3.13;2.07;;;;;;;16.51;56.46;94421.09;2619425;39;20543;-78
2022/09/13 21:45:51;;;;;;;2.23;2.03;;;;;;;15.49;57.47;94405.25;2618950;54;20149;-78
2022/09/13 21:48:19;;;;;;;1.93;1.83;;;;;;;17.11;55.55;94423.53;2619076;47;20141;-78
2022/09/13 21:50:48;;;;;;;1.80;1.70;;;;;;;16.89;54.49;94415.59;2618798;39;20598;-77
2022/09/13 21:53:16;;;;;;;1.53;1.53;;;;;;;16.79;54.26;94371.94;2618684;47;20148;-79
2022/09/13 21:55:46;;;;;;;3.00;2.10;;;;;;;17.07;54.44;94386.34;2618480;54;20195;-78
2022/09/13 21:58:14;;;;;;;2.40;2.30;;;;;;;15.91;56.72;94410.66;2618348;47;20187;-78
2022/09/13 22:00:43;;;;;;;1.80;1.80;;;;;;;15.14;58.32;94330.03;2618665;47;20172;-78
2022/09/13 22:03:14;;;;;;;2.50;2.30;;;;;;;15.42;57.50;94398.06;2618293;54;20224;-78
2022/09/13 22:05:43;;;;;;;2.20;2.00;;;;;;;14.66;61.06;94390.06;2618489;47;20164;-78
2022/09/13 22:08:12;;;;;;;1.73;1.70;;;;;;;15.43;59.43;94380.25;2618303;47;20165;-77
2022/09/13 22:10:40;;;;;;;1.77;1.73;;;;;;;15.19;58.10;94334.34;2618414;54;20196;-77
2022/09/13 22:13:09;;;;;;;2.23;1.90;;;;;;;15.65;58.25;94399.72;2618227;47;20145;-77
2022/09/13 22:15:38;;;;;;;1.40;1.40;;;;;;;16.66;56.42;94391.19;2618474;54;20743;-81
2022/09/13 22:18:07;;;;;;;2.37;2.20;;;;;;;16.96;54.12;94419.91;2618079;47;20144;-79
2022/09/13 22:20:39;;;;;;;1.67;1.57;;;;;;;15.87;56.32;94379.19;2618586;54;20265;-79
2022/09/13 22:23:08;;;;;;;2.17;2.07;;;;;;;15.45;58.30;94405.91;2618617;47;20192;-78
2022/09/13 22:25:37;;;;;;;2.30;2.20;;;;;;;15.60;60.17;94387.53;2618632;47;20156;-78
2022/09/13 22:28:05;;;;;;;2.07;1.97;;;;;;;16.40;55.44;94400.28;2618428;47;20149;-78
2022/09/13 22:30:36;;;;;;;3.93;1.93;;;;;;;16.67;56.57;94379.00;2618661;47;20165;-77
2022/09/13 22:33:05;;;;;;;1.60;1.50;;;;;;;16.90;54.09;94379.84;2618310;53;20149;-78
2022/09/13 22:35:34;;;;;;;1.30;1.30;;;;;;;15.06;57.24;94309.97;2618226;47;20160;-78
2022/09/13 22:38:05;;;;;;;1.77;1.67;;;;;;;15.97;56.64;94402.16;2617754;47;20245;-78
2022/09/13 22:40:34;;;;;;;2.00;2.00;;;;;;;15.81;56.29;94374.16;2617791;54;20220;-78
2022/09/13 22:43:02;;;;;;;1.60;1.50;;;;;;;16.71;56.83;94412.63;2617714;54;20172;-78
2022/09/13 22:45:31;;;;;;;1.80;1.70;;;;;;;16.70;53.35;94319.69;2617586;47;20177;-78
2022/09/13 22:48:00;;;;;;;2.50;2.40;;;;;;;17.00;52.59;94402.75;2617721;47;20664;-78
2022/09/13 22:50:28;;;;;;;2.17;1.97;;;;;;;15.93;56.39;94417.09;2617549;54;20165;-78
2022/09/13 22:52:57;;;;;;;2.73;1.47;;;;;;;16.49;56.80;94378.91;2617446;54;20164;-79
2022/09/13 22:55:28;;;;;;;1.87;1.77;;;;;;;16.76;54.15;94422.69;2617316;47;20762;-78
2022/09/13 22:57:57;;;;;;;1.80;1.70;;;;;;;15.90;57.06;94412.06;2617447;47;20224;-78
2022/09/13 23:00:26;;;;;;;2.13;2.03;;;;;;;17.03;55.27;94417.78;2617402;54;20173;-77
2022/09/13 23:02:55;;;;;;;1.80;1.70;;;;;;;16.92;54.73;94417.03;2617890;31;20621;-78
2022/09/13 23:05:23;;;;;;;1.83;1.73;;;;;;;17.16;54.05;94342.00;2617918;39;20647;-79
2022/09/13 23:07:52;;;;;;;1.63;1.53;;;;;;;17.17;52.54;94385.66;2617343;47;20187;-79
2022/09/13 23:10:21;;;;;;;4.27;1.53;;;;;;;16.28;55.95;94420.94;2617391;47;21022;-78
2022/09/13 23:12:52;;;;;;;1.67;1.57;;;;;;;17.39;53.71;94379.97;2617510;54;20192;-78
2022/09/13 23:15:21;;;;;;;2.35;2.20;;;;;;;15.90;55.71;94372.81;2617099;47;20407;-78
2022/09/13 23:17:50;;;;;;;1.87;1.77;;;;;;;15.76;58.71;94366.97;2618100;39;20542;-77
2022/09/13 23:20:19;;;;;;;2.23;1.97;;;;;;;16.41;54.35;94369.56;2617494;47;20153;-79
2022/09/13 23:22:48;;;;;;;1.80;1.80;;;;;;;15.72;55.98;94329.81;2617327;54;20157;-78
2022/09/13 23:25:16;;;;;;;2.10;2.00;;;;;;;17.44;54.16;94415.78;2617674;47;20156;-78
2022/09/13 23:27:45;;;;;;;2.53;2.43;;;;;;;16.90;53.25;94416.31;2617505;47;20152;-77
2022/09/13 23:30:17;;;;;;;3.27;1.73;;;;;;;16.46;54.53;94382.44;2617703;31;20725;-78
2022/09/13 23:32:49;;;;;;;2.03;1.93;;;;;;;16.56;54.17;94417.53;2618244;31;20646;-78
2022/09/13 23:35:18;;;;;;;1.63;1.63;;;;;;;15.52;59.07;94406.72;2608476;54;20168;-78
2022/09/13 23:37:49;;;;;;;1.43;1.20;;;;;;;16.90;54.71;94361.97;2616878;47;20156;-78
2022/09/13 23:40:18;;;;;;;1.70;1.60;;;;;;;16.38;54.53;94416.72;2617603;47;20193;-78
2022/09/13 23:42:47;;;;;;;1.93;1.83;;;;;;;16.43;54.53;94367.44;2618816;47;20165;-82
2022/09/13 23:45:18;;;;;;;2.00;1.90;;;;;;;16.06;55.81;94391.47;2619359;47;20145;-80
2022/09/13 23:47:47;;;;;;;2.10;2.00;;;;;;;17.14;55.54;94427.13;2620151;47;20209;-80
2022/09/13 23:50:16;;;;;;;1.87;1.77;;;;;;;16.44;54.40;94400.31;2619002;47;20157;-78
2022/09/13 23:52:45;;;;;;;1.77;1.67;;;;;;;15.46;56.03;94316.03;2618639;54;20149;-78
2022/09/13 23:55:14;;;;;;;1.53;1.50;;;;;;;15.65;56.46;94342.63;2618694;47;20964;-78
2022/09/13 23:57:43;;;;;;;1.60;1.50;;;;;;;17.76;52.90;94420.88;2619065;47;20145;-79
